Mason, Tennessee
Current Conditions -  °F | °C
As of 4:15 AM on Tuesday 27 Jan 2015 (Local Time) from KNQA Reporting Station
Clear Clear  
Wind Chill: 38°   Ceiling: Unl
Heat Index: 41°   Visibility: 10mi
Dew Point: 36°   Wind: 5mph
Humidity: 81%   Direction: 290°WNW
Pressure: 29.98"   Gusts: NA
Location:  35.41°N, 89.53°W
Report Text: KNQA 271015Z AUTO 29004KT 10SM CLR 05/02 A2998 RMK
Loading
Personal Weather Stations






























Interactive Weather Map New forecast layout! Learn more

10-Day Weather Forecast

Advertisements
Track Severe Weather on mobile